Terminal Aerodrome Forecast
Issued by NWS Los Angeles, CA

Home | Current Version | Previous Version | Text Only | Print | Product List | Glossary On
Versions: 1 2 3 4 5 6 7 8 9 10 11 12 13 14 15 16 17
000
FTUS46 KLOX 110000 CCB
TAFSMX
TAF COR
KSMX 110000Z 1100/1124 VRB03KT 5SM FU BKN060 BKN250
     FM110700 11003KT 4SM FU BKN060 BKN250
     FM112000 32008KT P6SM BKN060 BKN250=

USA.gov is the U.S. government's official web portal to all federal, state and local government web resources and services.